createdAt,value
2016-05-05T00:00:25.039Z,0
2016-05-05T00:01:24.792Z,0
2016-05-05T00:02:24.764Z,0
2016-05-05T00:03:24.422Z,0
2016-05-05T00:04:24.565Z,0
2016-05-05T00:05:24.583Z,0
2016-05-05T00:06:24.430Z,0
2016-05-05T00:07:24.386Z,0
2016-05-05T00:08:24.638Z,0
2016-05-05T00:09:25.689Z,0
2016-05-05T00:10:24.660Z,0
2016-05-05T00:11:24.616Z,0
2016-05-05T00:12:24.571Z,0
2016-05-05T00:13:24.136Z,0
2016-05-05T00:14:24.436Z,0
2016-05-05T00:15:24.626Z,0
2016-05-05T00:16:24.582Z,0
2016-05-05T00:17:52.724Z,0
2016-05-05T00:18:24.807Z,0
2016-05-05T00:19:25.059Z,0
2016-05-05T00:20:38.577Z,0
2016-05-05T00:21:24.643Z,0
2016-05-05T00:22:24.645Z,0
2016-05-05T00:23:38.507Z,0
2016-05-05T00:24:24.526Z,0
2016-05-05T00:25:24.809Z,0
2016-05-05T00:26:24.734Z,0
2016-05-05T00:27:38.706Z,0
2016-05-05T00:28:24.864Z,0
2016-05-05T00:29:24.898Z,0
2016-05-05T00:30:38.525Z,0
2016-05-05T00:31:25.013Z,0
2016-05-05T00:32:24.812Z,0
2016-05-05T00:33:24.142Z,0
2016-05-05T00:34:24.568Z,0
2016-05-05T00:35:24.492Z,0
2016-05-05T00:36:25.058Z,0
2016-05-05T00:37:24.701Z,0
2016-05-05T00:38:24.750Z,0
2016-05-05T00:39:25.519Z,0
2016-05-05T00:40:38.974Z,0
2016-05-05T00:41:25.086Z,0
2016-05-05T00:42:24.652Z,0
2016-05-05T00:43:25.264Z,0
2016-05-05T00:44:25.094Z,0
2016-05-05T00:45:24.879Z,0
2016-05-05T00:46:38.943Z,0
2016-05-05T00:47:24.869Z,0
2016-05-05T00:48:24.637Z,0
2016-05-05T00:49:24.686Z,0
2016-05-05T00:50:24.938Z,0
2016-05-05T00:51:24.552Z,0
2016-05-05T00:52:38.585Z,0
2016-05-05T00:53:24.166Z,0
2016-05-05T00:54:24.840Z,0
2016-05-05T00:55:24.656Z,0
2016-05-05T00:56:24.674Z,0
2016-05-05T00:57:24.630Z,0
2016-05-05T00:58:38.977Z,0
2016-05-05T00:59:38.854Z,0
2016-05-05T01:00:24.372Z,0
2016-05-05T01:01:24.718Z,0
2016-05-05T01:02:25.346Z,0
2016-05-05T01:03:24.927Z,0
2016-05-05T01:04:24.555Z,0
2016-05-05T01:05:25.120Z,0
2016-05-05T01:06:24.686Z,0
2016-05-05T01:07:24.688Z,0
2016-05-05T01:08:24.878Z,0
2016-05-05T01:09:24.396Z,0
2016-05-05T01:10:24.742Z,0
2016-05-05T01:11:24.574Z,0
2016-05-05T01:12:24.747Z,0
2016-05-05T01:13:24.704Z,0
2016-05-05T01:14:24.613Z,0
2016-05-05T01:15:38.788Z,0
2016-05-05T01:16:38.806Z,0
2016-05-05T01:17:24.730Z,0
2016-05-05T01:18:38.874Z,0
2016-05-05T01:19:24.923Z,0
2016-05-05T01:20:24.738Z,0
2016-05-05T01:21:24.757Z,0
2016-05-05T01:22:38.775Z,0
2016-05-05T01:23:24.637Z,0
2016-05-05T01:25:24.721Z,0
2016-05-05T01:26:24.755Z,0
2016-05-05T01:27:24.492Z,0
2016-05-05T01:28:25.166Z,0
2016-05-05T01:29:24.950Z,0
2016-05-05T01:30:24.765Z,0
2016-05-05T01:31:24.643Z,0
2016-05-05T01:32:24.724Z,0
2016-05-05T01:33:25.008Z,0
2016-05-05T01:34:24.761Z,0
2016-05-05T01:35:24.560Z,0
2016-05-05T01:36:24.767Z,0
2016-05-05T01:37:25.128Z,0
2016-05-05T01:38:24.084Z,0
2016-05-05T01:39:25.680Z,0
2016-05-05T01:40:25.073Z,0
2016-05-05T01:41:24.842Z,0
2016-05-05T01:42:24.236Z,0
2016-05-05T01:43:24.753Z,0
2016-05-05T01:44:24.772Z,0
2016-05-05T01:45:38.869Z,0
2016-05-05T01:46:39.261Z,0
2016-05-05T01:47:24.466Z,0
2016-05-05T01:48:24.954Z,0
2016-05-05T01:49:25.379Z,0
2016-05-05T01:50:52.944Z,0
2016-05-05T01:52:24.783Z,0
2016-05-05T01:53:38.734Z,0
2016-05-05T01:54:25.139Z,0
2016-05-05T01:56:39.448Z,0
2016-05-05T01:57:25.011Z,0
2016-05-05T01:58:24.857Z,0
2016-05-05T01:59:25.016Z,0
2016-05-05T02:00:25.081Z,0
2016-05-05T02:01:25.022Z,0
2016-05-05T02:02:25.285Z,0
2016-05-05T02:03:25.247Z,0
2016-05-05T02:04:53.441Z,0
2016-05-05T02:05:25.045Z,0
2016-05-05T02:06:39.147Z,0
2016-05-05T02:07:25.122Z,0
2016-05-05T02:08:25.283Z,0
2016-05-05T02:09:26.600Z,0
2016-05-05T02:10:25.573Z,0
2016-05-05T02:11:25.077Z,0
2016-05-05T02:12:25.348Z,0
2016-05-05T02:13:24.821Z,0
2016-05-05T02:14:39.604Z,0
2016-05-05T02:15:25.093Z,0
2016-05-05T02:16:24.986Z,0
2016-05-05T02:17:25.521Z,0
2016-05-05T02:18:25.305Z,0
2016-05-05T02:19:24.965Z,0
2016-05-05T02:20:25.093Z,0
2016-05-05T02:21:25.080Z,0
2016-05-05T02:22:25.100Z,0
2016-05-05T02:23:25.744Z,0
2016-05-05T02:24:25.106Z,0
2016-05-05T02:25:24.937Z,0
2016-05-05T02:26:25.361Z,0
2016-05-05T02:27:25.301Z,0
2016-05-05T02:28:25.117Z,0
2016-05-05T02:29:24.995Z,0
2016-05-05T02:31:25.312Z,0
2016-05-05T02:32:25.096Z,0
2016-05-05T02:33:25.114Z,0
2016-05-05T02:34:25.133Z,0
2016-05-05T02:35:25.089Z,0
2016-05-05T02:36:25.122Z,0
2016-05-05T02:37:25.094Z,0
2016-05-05T02:38:25.487Z,0
2016-05-05T02:39:25.365Z,0
2016-05-05T02:40:25.321Z,0
2016-05-05T02:41:24.933Z,0
2016-05-05T02:42:25.326Z,0
2016-05-05T02:43:24.797Z,0
2016-05-05T02:45:25.288Z,0
2016-05-05T02:46:24.946Z,0
2016-05-05T02:47:25.308Z,0
2016-05-05T02:48:25.280Z,0
2016-05-05T02:49:25.110Z,0
2016-05-05T02:50:25.130Z,0
2016-05-05T02:51:25.757Z,0
2016-05-05T02:52:25.103Z,0
2016-05-05T02:53:25.324Z,0
2016-05-05T02:54:25.202Z,0
2016-05-05T02:55:25.158Z,0
2016-05-05T02:56:25.521Z,0
2016-05-05T02:57:25.304Z,0
2016-05-05T02:58:39.385Z,0
2016-05-05T02:59:24.997Z,0
2016-05-05T03:00:25.344Z,0
2016-05-05T03:01:25.127Z,0
2016-05-05T03:02:25.099Z,0
2016-05-05T03:03:25.132Z,0
2016-05-05T03:04:25.339Z,0
2016-05-05T03:05:25.138Z,0
2016-05-05T03:07:25.097Z,0
2016-05-05T03:08:25.318Z,0
2016-05-05T03:09:26.274Z,0
2016-05-05T03:10:38.901Z,0
2016-05-05T03:11:39.013Z,0
2016-05-05T03:12:38.703Z,0
2016-05-05T03:13:24.941Z,0
2016-05-05T03:14:24.444Z,0
2016-05-05T03:15:25.133Z,0
2016-05-05T03:16:25.121Z,0
2016-05-05T03:17:39.608Z,0
2016-05-05T03:18:25.127Z,0
2016-05-05T03:19:25.176Z,0
2016-05-05T03:20:25.335Z,0
2016-05-05T03:21:25.555Z,0
2016-05-05T03:22:24.933Z,0
2016-05-05T03:23:25.311Z,0
2016-05-05T03:24:27.080Z,0
2016-05-05T03:25:25.130Z,0
2016-05-05T03:26:25.944Z,5
2016-05-05T03:27:25.885Z,5
2016-05-05T03:28:25.090Z,5
2016-05-05T03:29:25.360Z,5
2016-05-05T03:30:25.127Z,5
2016-05-05T03:32:39.617Z,5
2016-05-05T03:34:25.107Z,10
2016-05-05T03:35:25.157Z,10
2016-05-05T03:36:25.300Z,10
2016-05-05T03:37:25.131Z,10
2016-05-05T03:38:25.540Z,10
2016-05-05T03:39:26.151Z,10
2016-05-05T03:40:39.404Z,15
2016-05-05T03:41:25.531Z,15
2016-05-05T03:42:25.284Z,15
2016-05-05T03:43:25.084Z,15
2016-05-05T03:44:25.306Z,15
2016-05-05T03:45:25.511Z,20
2016-05-05T03:46:39.342Z,20
2016-05-05T03:47:25.517Z,20
2016-05-05T03:48:24.833Z,20
2016-05-05T03:49:25.303Z,20
2016-05-05T03:50:25.087Z,20
2016-05-05T03:51:24.621Z,25
2016-05-05T03:52:25.139Z,25
2016-05-05T03:53:25.579Z,25
2016-05-05T03:54:25.113Z,25
2016-05-05T03:55:25.116Z,25
2016-05-05T03:56:25.291Z,25
2016-05-05T03:57:25.357Z,25
2016-05-05T03:58:25.327Z,30
2016-05-05T03:59:24.971Z,30
2016-05-05T04:00:24.785Z,30
2016-05-05T04:01:24.929Z,30
2016-05-05T04:02:25.073Z,30
2016-05-05T04:03:25.325Z,30
2016-05-05T04:04:25.093Z,35
2016-05-05T04:05:25.471Z,35
2016-05-05T04:06:24.646Z,35
2016-05-05T04:07:25.165Z,40
2016-05-05T04:08:25.089Z,45
2016-05-05T04:09:26.717Z,45
2016-05-05T04:10:25.062Z,50
2016-05-05T04:11:25.284Z,50
2016-05-05T04:12:25.115Z,55
2016-05-05T04:13:24.946Z,60
2016-05-05T04:14:39.152Z,65
2016-05-05T04:15:24.764Z,65
2016-05-05T04:16:24.861Z,70
2016-05-05T04:17:25.114Z,70
2016-05-05T04:18:25.053Z,70
2016-05-05T04:19:25.087Z,75
2016-05-05T04:20:25.058Z,75
2016-05-05T04:21:24.889Z,75
2016-05-05T04:22:25.314Z,75
2016-05-05T04:23:25.363Z,75
2016-05-05T04:24:25.272Z,70
2016-05-05T04:25:25.478Z,70
2016-05-05T04:26:25.013Z,75
2016-05-05T04:27:25.063Z,75
2016-05-05T04:28:25.174Z,75
2016-05-05T04:29:24.927Z,80
2016-05-05T04:30:25.101Z,80
2016-05-05T04:31:24.791Z,85
2016-05-05T04:32:25.263Z,85
2016-05-05T04:33:25.062Z,90
2016-05-05T04:35:24.926Z,85
2016-05-05T04:36:25.508Z,90
2016-05-05T04:37:25.260Z,90
2016-05-05T04:38:24.873Z,90
2016-05-05T04:39:25.485Z,90
2016-05-05T04:40:25.065Z,95
2016-05-05T04:41:38.990Z,95
2016-05-05T04:42:24.931Z,95
2016-05-05T04:43:25.511Z,95
2016-05-05T04:44:25.170Z,95
2016-05-05T04:45:25.345Z,95
2016-05-05T04:46:25.285Z,95
2016-05-05T04:47:25.131Z,95
2016-05-05T04:48:25.071Z,100
2016-05-05T04:50:25.077Z,100
2016-05-05T04:51:25.033Z,95
2016-05-05T04:52:24.629Z,95
2016-05-05T04:53:25.273Z,95
2016-05-05T04:54:24.463Z,100
2016-05-05T04:55:25.277Z,100
2016-05-05T04:56:24.922Z,100
2016-05-05T04:57:25.268Z,100
2016-05-05T04:58:25.113Z,100
2016-05-05T04:59:25.086Z,100
2016-05-05T05:00:24.979Z,100
2016-05-05T05:01:25.091Z,100
2016-05-05T05:02:25.063Z,100
2016-05-05T05:03:24.909Z,100
2016-05-05T05:04:25.082Z,100
2016-05-05T05:05:24.914Z,100
2016-05-05T05:06:25.105Z,100
2016-05-05T05:07:24.341Z,100
2016-05-05T05:08:25.204Z,100
2016-05-05T05:09:24.987Z,105
2016-05-05T05:10:24.428Z,105
2016-05-05T05:11:25.070Z,110
2016-05-05T05:12:25.293Z,110
2016-05-05T05:13:25.092Z,115
2016-05-05T05:14:25.110Z,115
2016-05-05T05:15:25.098Z,115
2016-05-05T05:16:25.287Z,120
2016-05-05T05:17:24.946Z,120
2016-05-05T05:18:25.136Z,125
2016-05-05T05:19:39.170Z,125
2016-05-05T05:20:25.126Z,125
2016-05-05T05:21:25.129Z,130
2016-05-05T05:22:24.975Z,130
2016-05-05T05:23:25.525Z,130
2016-05-05T05:24:25.966Z,135
2016-05-05T05:25:24.921Z,135
2016-05-05T05:26:25.299Z,140
2016-05-05T05:27:25.301Z,140
2016-05-05T05:28:24.851Z,140
2016-05-05T05:29:25.119Z,145
2016-05-05T05:30:24.966Z,150
2016-05-05T05:31:25.234Z,150
2016-05-05T05:32:24.643Z,155
2016-05-05T05:33:24.958Z,155
2016-05-05T05:34:25.117Z,160
2016-05-05T05:35:24.948Z,165
2016-05-05T05:36:25.107Z,165
2016-05-05T05:37:25.187Z,170
2016-05-05T05:38:25.174Z,175
2016-05-05T05:39:24.599Z,175
2016-05-05T05:40:25.321Z,175
2016-05-05T05:41:25.136Z,180
2016-05-05T05:42:25.154Z,180
2016-05-05T05:43:25.000Z,180
2016-05-05T05:44:24.847Z,180
2016-05-05T05:45:25.147Z,180
2016-05-05T05:46:24.978Z,175
2016-05-05T05:47:24.855Z,175
2016-05-05T05:48:25.139Z,175
2016-05-05T05:49:39.204Z,175
2016-05-05T05:50:25.206Z,175
2016-05-05T05:51:24.834Z,175
2016-05-05T05:52:24.916Z,175
2016-05-05T05:53:24.668Z,175
2016-05-05T05:54:25.639Z,175
2016-05-05T05:55:25.189Z,175
2016-05-05T05:56:25.160Z,175
2016-05-05T05:57:25.038Z,175
2016-05-05T05:58:25.166Z,175
2016-05-05T05:59:25.013Z,180
2016-05-05T06:00:24.999Z,180
2016-05-05T06:01:25.158Z,180
2016-05-05T06:02:25.176Z,180
2016-05-05T06:03:24.710Z,180
2016-05-05T06:04:25.229Z,180
2016-05-05T06:05:25.216Z,180
2016-05-05T06:06:25.157Z,180
2016-05-05T06:07:25.190Z,185
2016-05-05T06:08:38.770Z,185
2016-05-05T06:09:25.757Z,185
2016-05-05T06:10:25.668Z,185
2016-05-05T06:11:24.873Z,185
2016-05-05T06:12:25.219Z,190
2016-05-05T06:13:39.300Z,190
2016-05-05T06:14:24.756Z,190
2016-05-05T06:15:24.758Z,195
2016-05-05T06:16:25.183Z,195
2016-05-05T06:17:25.451Z,200
2016-05-05T06:18:25.469Z,205
2016-05-05T06:19:25.066Z,215
2016-05-05T06:21:25.275Z,230
2016-05-05T06:22:24.746Z,235
2016-05-05T06:23:25.055Z,245
2016-05-05T06:24:25.261Z,250
2016-05-05T06:25:25.232Z,255
2016-05-05T06:26:25.408Z,260
2016-05-05T06:27:25.082Z,265
2016-05-05T06:28:25.303Z,270
2016-05-05T06:29:25.087Z,275
2016-05-05T06:30:25.262Z,280
2016-05-05T06:31:25.312Z,280
2016-05-05T06:32:24.799Z,280
2016-05-05T06:33:24.785Z,275
2016-05-05T06:34:25.679Z,275
2016-05-05T06:35:25.525Z,275
2016-05-05T06:36:25.246Z,270
2016-05-05T06:37:25.265Z,270
2016-05-05T06:38:25.267Z,270
2016-05-05T06:39:26.114Z,270
2016-05-05T06:40:25.289Z,270
2016-05-05T06:41:25.275Z,270
2016-05-05T06:42:25.388Z,275
2016-05-05T06:43:25.312Z,270
2016-05-05T06:44:25.315Z,270
2016-05-05T06:45:25.270Z,270
2016-05-05T06:46:25.195Z,270
2016-05-05T06:47:25.308Z,270
2016-05-05T06:48:25.169Z,270
2016-05-05T06:49:25.297Z,270
2016-05-05T06:50:25.300Z,270
2016-05-05T06:51:25.146Z,270
2016-05-05T06:52:25.368Z,270
2016-05-05T06:53:25.308Z,275
2016-05-05T06:54:25.202Z,280
2016-05-05T06:55:25.329Z,285
2016-05-05T06:56:25.160Z,285
2016-05-05T06:57:25.350Z,290
2016-05-05T06:58:25.337Z,290
2016-05-05T06:59:25.558Z,295
2016-05-05T07:00:25.310Z,290
2016-05-05T07:01:25.377Z,290
2016-05-05T07:02:25.379Z,295
2016-05-05T07:03:25.351Z,295
2016-05-05T07:04:25.213Z,295
2016-05-05T07:05:25.404Z,295
2016-05-05T07:06:25.343Z,290
2016-05-05T07:07:25.221Z,285
2016-05-05T07:08:25.207Z,280
2016-05-05T07:09:25.867Z,275
2016-05-05T07:10:25.385Z,275
2016-05-05T07:11:24.903Z,270
2016-05-05T07:12:25.593Z,270
2016-05-05T07:13:25.409Z,265
2016-05-05T07:14:25.287Z,265
2016-05-05T07:15:25.273Z,265
2016-05-05T07:16:25.416Z,270
2016-05-05T07:17:25.420Z,275
2016-05-05T07:18:25.281Z,285
2016-05-05T07:19:25.003Z,290
2016-05-05T07:20:25.630Z,300
2016-05-05T07:21:25.821Z,315
2016-05-05T07:22:25.433Z,325
2016-05-05T07:23:39.529Z,355
2016-05-05T07:24:25.563Z,375
2016-05-05T07:25:25.441Z,390
2016-05-05T07:26:25.147Z,405
2016-05-05T07:27:25.133Z,430
2016-05-05T07:28:25.511Z,450
2016-05-05T07:29:25.764Z,465
2016-05-05T07:30:39.580Z,490
2016-05-05T07:31:25.488Z,500
2016-05-05T07:32:25.491Z,520
2016-05-05T07:33:25.354Z,540
2016-05-05T07:34:25.356Z,550
2016-05-05T07:35:25.484Z,565
2016-05-05T07:36:25.033Z,565
2016-05-05T07:37:25.489Z,565
2016-05-05T07:38:25.367Z,560
2016-05-05T07:39:25.994Z,560
2016-05-05T07:40:25.091Z,545
2016-05-05T07:41:25.500Z,530
2016-05-05T07:42:25.267Z,530
2016-05-05T07:43:25.396Z,525
2016-05-05T07:44:25.554Z,520
2016-05-05T07:45:25.589Z,525
2016-05-05T07:46:25.559Z,525
2016-05-05T07:47:26.000Z,500
2016-05-05T07:48:25.581Z,485
2016-05-05T07:49:25.552Z,470
2016-05-05T07:51:25.464Z,450
2016-05-05T07:52:25.420Z,480
2016-05-05T07:53:25.438Z,470
2016-05-05T07:54:25.503Z,485
2016-05-05T07:55:25.318Z,500
2016-05-05T07:56:25.602Z,525
2016-05-05T07:57:25.527Z,510
2016-05-05T07:58:25.639Z,505
2016-05-05T07:59:25.642Z,495
2016-05-05T08:00:25.644Z,490
2016-05-05T08:01:25.663Z,495
2016-05-05T08:02:25.493Z,505
2016-05-05T08:03:25.637Z,515
2016-05-05T08:04:25.671Z,505
2016-05-05T08:05:25.518Z,495
2016-05-05T08:06:25.693Z,490
2016-05-05T08:07:25.679Z,470
2016-05-05T08:08:25.603Z,470
2016-05-05T08:09:26.372Z,475
2016-05-05T08:10:25.578Z,495
2016-05-05T08:12:25.083Z,515
2016-05-05T08:14:25.589Z,530
2016-05-05T08:15:25.576Z,530
2016-05-05T08:16:25.469Z,530
2016-05-05T08:17:25.752Z,535
2016-05-05T08:18:25.943Z,545
2016-05-05T08:19:25.602Z,560
2016-05-05T08:20:25.761Z,570
2016-05-05T08:21:25.764Z,570
2016-05-05T08:22:39.845Z,565
2016-05-05T08:23:25.816Z,565
2016-05-05T08:24:25.522Z,575
2016-05-05T08:25:39.758Z,590
2016-05-05T08:26:25.636Z,605
2016-05-05T08:27:25.842Z,635
2016-05-05T08:28:53.986Z,650
2016-05-05T08:29:25.816Z,645
2016-05-05T08:30:40.116Z,650
2016-05-05T08:31:25.728Z,655
2016-05-05T08:32:25.387Z,650
2016-05-05T08:33:25.983Z,660
2016-05-05T08:34:25.721Z,675
2016-05-05T08:35:25.863Z,675
2016-05-05T08:36:26.101Z,675
2016-05-05T08:37:25.729Z,675
2016-05-05T08:38:25.918Z,685
2016-05-05T08:39:26.124Z,695
2016-05-05T08:40:25.798Z,685
2016-05-05T08:41:25.786Z,670
2016-05-05T08:42:25.492Z,650
2016-05-05T08:43:26.010Z,635
2016-05-05T08:44:25.965Z,625
2016-05-05T08:45:26.032Z,635
2016-05-05T08:46:25.862Z,645
2016-05-05T08:47:39.911Z,650
2016-05-05T08:48:25.992Z,675
2016-05-05T08:49:25.995Z,685
2016-05-05T08:50:25.998Z,690
2016-05-05T08:51:26.016Z,705
2016-05-05T08:52:25.581Z,730
2016-05-05T08:53:25.725Z,735
2016-05-05T08:54:26.039Z,715
2016-05-05T08:55:26.058Z,695
2016-05-05T08:56:26.061Z,680
2016-05-05T08:57:39.642Z,675
2016-05-05T08:58:26.066Z,670
2016-05-05T08:59:26.068Z,665
2016-05-05T09:00:26.088Z,645
2016-05-05T09:01:26.122Z,610
2016-05-05T09:02:25.795Z,585
2016-05-05T09:03:26.002Z,570
2016-05-05T09:04:26.144Z,560
2016-05-05T09:05:26.960Z,550
2016-05-05T09:06:26.009Z,550
2016-05-05T09:07:40.309Z,565
2016-05-05T09:08:26.218Z,580
2016-05-05T09:09:27.033Z,600
2016-05-05T09:10:26.410Z,605
2016-05-05T09:11:26.054Z,615
2016-05-05T09:12:26.448Z,620
2016-05-05T09:13:25.904Z,635
2016-05-05T09:14:25.781Z,640
2016-05-05T09:15:26.690Z,640
2016-05-05T09:16:26.271Z,645
2016-05-05T09:17:26.259Z,655
2016-05-05T09:18:40.760Z,670
2016-05-05T09:19:26.451Z,680
2016-05-05T09:20:25.859Z,705
2016-05-05T09:21:26.315Z,695
2016-05-05T09:22:26.475Z,680
2016-05-05T09:23:26.149Z,660
2016-05-05T09:24:27.589Z,650
2016-05-05T09:25:26.341Z,660
2016-05-05T09:26:26.345Z,650
2016-05-05T09:27:26.050Z,620
2016-05-05T09:28:26.381Z,590
2016-05-05T09:29:26.791Z,570
2016-05-05T09:30:26.388Z,555
2016-05-05T09:31:26.395Z,545
2016-05-05T09:32:26.448Z,540
2016-05-05T09:33:26.247Z,560
2016-05-05T09:34:26.249Z,575
2016-05-05T09:35:40.346Z,615
2016-05-05T09:36:26.849Z,630
2016-05-05T09:37:26.101Z,645
2016-05-05T09:38:26.649Z,665
2016-05-05T09:39:26.732Z,655
2016-05-05T09:40:26.296Z,655
2016-05-05T09:41:26.721Z,660
2016-05-05T09:42:26.546Z,655
2016-05-05T09:43:26.487Z,660
2016-05-05T09:44:26.504Z,670
2016-05-05T09:45:26.506Z,685
2016-05-05T09:46:26.807Z,695
2016-05-05T09:47:26.528Z,680
2016-05-05T09:48:29.547Z,670
2016-05-05T09:49:26.565Z,660
2016-05-05T09:50:27.177Z,650
2016-05-05T09:51:26.742Z,640
2016-05-05T09:52:26.573Z,635
2016-05-05T09:53:26.450Z,610
2016-05-05T09:54:28.281Z,575
2016-05-05T09:55:26.441Z,535
2016-05-05T09:56:26.583Z,505
2016-05-05T09:57:40.711Z,490
2016-05-05T09:58:26.620Z,475
2016-05-05T09:59:41.122Z,480
2016-05-05T10:00:26.688Z,460
2016-05-05T10:01:26.363Z,430
2016-05-05T10:02:26.521Z,415
2016-05-05T10:03:26.712Z,405
2016-05-05T10:04:26.745Z,400
2016-05-05T10:05:26.873Z,420
2016-05-05T10:06:26.735Z,435
2016-05-05T10:07:26.691Z,450
2016-05-05T10:08:26.912Z,445
2016-05-05T10:09:28.087Z,435
2016-05-05T10:10:26.715Z,405
2016-05-05T10:11:26.826Z,390
2016-05-05T10:12:26.752Z,400
2016-05-05T10:13:26.989Z,410
2016-05-05T10:14:26.834Z,420
2016-05-05T10:15:26.854Z,425
2016-05-05T10:16:26.809Z,430
2016-05-05T10:17:26.780Z,420
2016-05-05T10:18:41.096Z,405
2016-05-05T10:19:27.067Z,400
2016-05-05T10:20:26.382Z,385
2016-05-05T10:21:26.886Z,365
2016-05-05T10:22:26.825Z,355
2016-05-05T10:23:26.875Z,345
2016-05-05T10:24:27.096Z,335
2016-05-05T10:25:27.067Z,325
2016-05-05T10:26:26.883Z,325
2016-05-05T10:27:26.714Z,320
2016-05-05T10:28:27.607Z,315
2016-05-05T10:29:26.625Z,305
2016-05-05T10:30:26.909Z,305
2016-05-05T10:31:27.052Z,305
2016-05-05T10:32:26.978Z,300
2016-05-05T10:33:26.777Z,300
2016-05-05T10:34:26.967Z,300
2016-05-05T10:35:26.719Z,295
2016-05-05T10:36:26.972Z,295
2016-05-05T10:37:26.679Z,295
2016-05-05T10:38:27.009Z,295
2016-05-05T10:39:28.840Z,295
2016-05-05T10:40:27.014Z,295
2016-05-05T10:41:26.860Z,295
2016-05-05T10:42:27.004Z,295
2016-05-05T10:43:27.054Z,295
2016-05-05T10:44:27.040Z,290
2016-05-05T10:45:41.325Z,290
2016-05-05T10:46:26.890Z,290
2016-05-05T10:47:40.846Z,290
2016-05-05T10:48:26.911Z,290
2016-05-05T10:49:27.289Z,295
2016-05-05T10:50:27.088Z,295
2016-05-05T10:51:26.997Z,295
2016-05-05T10:52:27.109Z,290
2016-05-05T10:53:27.127Z,290
2016-05-05T10:54:41.661Z,295
2016-05-05T10:55:27.305Z,290
2016-05-05T10:56:28.167Z,295
2016-05-05T10:57:27.153Z,285
2016-05-05T10:58:27.407Z,285
2016-05-05T10:59:27.125Z,285
2016-05-05T11:00:27.327Z,280
2016-05-05T11:01:27.937Z,280
2016-05-05T11:02:27.452Z,285
2016-05-05T11:03:28.493Z,280
2016-05-05T11:04:41.731Z,280
2016-05-05T11:05:27.874Z,280
2016-05-05T11:06:27.987Z,280
2016-05-05T11:07:27.770Z,280
2016-05-05T11:08:41.626Z,285
2016-05-05T11:09:28.962Z,285
2016-05-05T11:10:27.455Z,285
2016-05-05T11:11:27.650Z,285
2016-05-05T11:12:27.596Z,285
2016-05-05T11:13:27.647Z,285
2016-05-05T11:14:27.387Z,285
2016-05-05T11:15:27.469Z,285
2016-05-05T11:16:27.880Z,285
2016-05-05T11:17:27.665Z,285
2016-05-05T11:18:27.670Z,285
2016-05-05T11:19:27.689Z,285
2016-05-05T11:20:27.411Z,285
2016-05-05T11:21:27.743Z,285
2016-05-05T11:22:27.543Z,280
2016-05-05T11:23:27.293Z,280
2016-05-05T11:24:27.749Z,280
2016-05-05T11:25:27.721Z,280
2016-05-05T11:26:27.724Z,275
2016-05-05T11:27:27.289Z,275
2016-05-05T11:28:27.761Z,275
2016-05-05T11:29:27.608Z,275
2016-05-05T11:30:27.782Z,275
2016-05-05T11:31:27.817Z,275
2016-05-05T11:32:28.007Z,275
2016-05-05T11:33:28.009Z,280
2016-05-05T11:34:28.043Z,280
2016-05-05T11:35:27.686Z,280
2016-05-05T11:36:41.752Z,280
2016-05-05T11:37:28.051Z,280
2016-05-05T11:38:28.132Z,280
2016-05-05T11:39:28.183Z,280
2016-05-05T11:40:27.450Z,280
2016-05-05T11:41:41.969Z,280
2016-05-05T11:42:27.674Z,280
2016-05-05T11:43:42.224Z,280
2016-05-05T11:44:27.898Z,280
2016-05-05T11:45:27.277Z,285
2016-05-05T11:46:27.966Z,285
2016-05-05T11:47:27.922Z,285
2016-05-05T11:48:27.628Z,285
2016-05-05T11:49:27.974Z,285
2016-05-05T11:50:27.821Z,290
2016-05-05T11:51:27.542Z,285
2016-05-05T11:52:41.920Z,285
2016-05-05T11:53:28.235Z,285
2016-05-05T11:54:29.066Z,280
2016-05-05T11:55:28.148Z,280
2016-05-05T11:57:28.074Z,285
2016-05-05T11:58:28.092Z,285
2016-05-05T11:59:27.939Z,285
2016-05-05T12:00:28.097Z,285
2016-05-05T12:01:28.319Z,285
2016-05-05T12:02:28.119Z,285
2016-05-05T12:03:27.965Z,285
2016-05-05T12:04:27.890Z,285
2016-05-05T12:05:28.361Z,285
2016-05-05T12:06:28.145Z,285
2016-05-05T12:07:28.819Z,285
2016-05-05T12:08:28.369Z,285
2016-05-05T12:09:28.106Z,285
2016-05-05T12:10:28.078Z,285
2016-05-05T12:11:28.846Z,285
2016-05-05T12:12:28.239Z,290
2016-05-05T12:13:45.351Z,285
2016-05-05T12:14:28.244Z,285
2016-05-05T12:15:28.262Z,290
2016-05-05T12:16:28.313Z,290
2016-05-05T12:17:28.144Z,290
2016-05-05T12:18:42.396Z,290
2016-05-05T12:20:28.323Z,285
2016-05-05T12:21:28.576Z,285
2016-05-05T12:22:28.390Z,285
2016-05-05T12:23:28.362Z,285
2016-05-05T12:24:28.476Z,280
2016-05-05T12:25:28.384Z,280
2016-05-05T12:26:28.056Z,280
2016-05-05T12:27:28.811Z,280
2016-05-05T12:28:28.251Z,285
2016-05-05T12:30:28.288Z,290
2016-05-05T12:31:28.306Z,290
2016-05-05T12:32:28.464Z,290
2016-05-05T12:33:28.499Z,290
2016-05-05T12:34:28.358Z,295
2016-05-05T12:35:28.486Z,295
2016-05-05T12:36:28.504Z,295
2016-05-05T12:37:28.728Z,295
2016-05-05T12:38:28.778Z,295
2016-05-05T12:39:28.606Z,290
2016-05-05T12:40:28.877Z,290
2016-05-05T12:41:28.849Z,290
2016-05-05T12:42:28.646Z,290
2016-05-05T12:43:28.616Z,290
2016-05-05T12:44:28.604Z,295
2016-05-05T12:45:28.450Z,290
2016-05-05T12:47:28.174Z,290
2016-05-05T12:48:28.490Z,285
2016-05-05T12:49:28.868Z,290
2016-05-05T12:50:28.385Z,290
2016-05-05T12:51:28.904Z,290
2016-05-05T12:52:28.703Z,290
2016-05-05T12:53:28.565Z,290
2016-05-05T12:54:28.709Z,295
2016-05-05T12:55:28.977Z,295
2016-05-05T12:56:28.590Z,290
2016-05-05T12:57:28.779Z,290
2016-05-05T12:58:28.766Z,290
2016-05-05T13:00:28.835Z,295
2016-05-05T13:01:43.137Z,295
2016-05-05T13:02:29.231Z,295
2016-05-05T13:03:28.561Z,295
2016-05-05T13:04:28.845Z,295
2016-05-05T13:05:28.926Z,295
2016-05-05T13:06:28.725Z,295
2016-05-05T13:07:28.728Z,295
2016-05-05T13:08:28.919Z,295
2016-05-05T13:09:28.922Z,295
2016-05-05T13:10:29.267Z,295
2016-05-05T13:11:29.192Z,295
2016-05-05T13:12:28.945Z,290
2016-05-05T13:13:28.947Z,295
2016-05-05T13:14:28.388Z,295
2016-05-05T13:15:28.546Z,295
2016-05-05T13:16:28.705Z,295
2016-05-05T13:17:29.005Z,295
2016-05-05T13:18:28.368Z,295
2016-05-05T13:19:28.916Z,295
2016-05-05T13:20:28.935Z,295
2016-05-05T13:21:29.094Z,290
2016-05-05T13:22:29.097Z,290
2016-05-05T13:23:28.943Z,290
2016-05-05T13:24:29.352Z,290
2016-05-05T13:25:29.371Z,290
2016-05-05T13:26:28.654Z,290
2016-05-05T13:27:29.563Z,290
2016-05-05T13:28:29.020Z,290
2016-05-05T13:29:29.006Z,290
2016-05-05T13:30:29.009Z,285
2016-05-05T13:31:29.246Z,285
2016-05-05T13:32:29.217Z,290
2016-05-05T13:33:29.251Z,290
2016-05-05T13:34:29.254Z,290
2016-05-05T13:35:29.242Z,285
2016-05-05T13:36:29.509Z,285
2016-05-05T13:37:53.047Z,285
2016-05-05T13:38:31.125Z,285
2016-05-05T13:39:43.817Z,285
2016-05-05T13:40:29.239Z,280
2016-05-05T13:41:29.336Z,285
2016-05-05T13:42:29.353Z,285
2016-05-05T13:43:29.200Z,285
2016-05-05T13:44:29.781Z,285
2016-05-05T13:45:29.393Z,285
2016-05-05T13:46:29.411Z,285
2016-05-05T13:47:29.446Z,285
2016-05-05T13:48:29.652Z,280
2016-05-05T13:49:29.638Z,285
2016-05-05T13:50:29.656Z,285
2016-05-05T13:51:29.175Z,285
2016-05-05T13:52:29.365Z,285
2016-05-05T13:53:29.024Z,285
2016-05-05T13:54:29.543Z,285
2016-05-05T13:55:31.967Z,290
2016-05-05T13:56:29.063Z,290
2016-05-05T13:58:29.615Z,295
2016-05-05T13:59:29.274Z,295
2016-05-05T14:00:29.652Z,295
2016-05-05T14:01:29.639Z,295
2016-05-05T14:02:29.845Z,290
2016-05-05T14:03:29.472Z,290
2016-05-05T14:04:29.647Z,285
2016-05-05T14:05:29.681Z,285
2016-05-05T14:06:29.684Z,285
2016-05-05T14:07:29.702Z,285
2016-05-05T14:08:29.673Z,285
2016-05-05T14:09:29.989Z,285
2016-05-05T14:10:29.648Z,290
2016-05-05T14:11:29.775Z,290
2016-05-05T14:12:43.875Z,290
2016-05-05T14:13:29.828Z,290
2016-05-05T14:14:29.472Z,295
2016-05-05T14:15:29.536Z,295
2016-05-05T14:16:30.055Z,305
2016-05-05T14:17:29.854Z,315
2016-05-05T14:18:29.701Z,320
2016-05-05T14:19:29.874Z,330
2016-05-05T14:20:29.877Z,335
2016-05-05T14:21:29.881Z,330
2016-05-05T14:22:30.008Z,330